createdAt,value
2023-03-26T00:01:33.726Z,11.43
2023-03-26T00:04:01.825Z,11.51
2023-03-26T00:06:36.773Z,11.69
2023-03-26T00:09:06.959Z,11.55
2023-03-26T00:11:34.829Z,11.60
2023-03-26T00:14:02.693Z,11.81
2023-03-26T00:16:31.408Z,11.35
2023-03-26T00:18:59.971Z,11.63
2023-03-26T00:21:29.237Z,11.53
2023-03-26T00:24:04.713Z,11.62
2023-03-26T00:26:37.647Z,11.73
2023-03-26T00:29:06.700Z,11.17
2023-03-26T00:31:34.771Z,11.29
2023-03-26T00:34:03.884Z,11.12
2023-03-26T00:36:32.137Z,10.78
2023-03-26T00:38:59.702Z,10.91
2023-03-26T00:41:30.847Z,10.82
2023-03-26T00:44:00.209Z,10.58
2023-03-26T00:46:30.612Z,10.66
2023-03-26T00:49:01.855Z,10.55
2023-03-26T00:51:30.080Z,10.86
2023-03-26T00:53:57.962Z,10.70
2023-03-26T00:56:26.183Z,10.47
2023-03-26T00:58:53.925Z,10.43
2023-03-26T01:01:27.315Z,10.11
2023-03-26T01:04:08.373Z,10.38
2023-03-26T01:06:41.243Z,10.45
2023-03-26T01:09:16.335Z,10.46
2023-03-26T01:11:44.235Z,10.34
2023-03-26T01:14:16.851Z,10.17
2023-03-26T01:16:56.696Z,10.26
2023-03-26T01:19:44.681Z,10.33
2023-03-26T01:22:18.014Z,10.31
2023-03-26T01:24:52.184Z,10.14
2023-03-26T01:27:34.594Z,10.37
2023-03-26T01:30:11.177Z,10.24
2023-03-26T01:32:57.780Z,10.49
2023-03-26T01:35:46.112Z,10.54
2023-03-26T01:38:13.490Z,10.49
2023-03-26T01:41:03.439Z,10.13
2023-03-26T01:43:33.723Z,10.59
2023-03-26T01:46:05.415Z,10.76
2023-03-26T01:48:38.559Z,10.73
2023-03-26T01:51:07.293Z,11.08
2023-03-26T01:53:38.406Z,10.95
2023-03-26T01:56:13.317Z,10.95
2023-03-26T01:59:05.753Z,10.93
2023-03-26T02:01:46.156Z,10.89
2023-03-26T02:04:48.169Z,10.98
2023-03-26T02:07:45.052Z,11.21
2023-03-26T02:10:21.556Z,11.34
2023-03-26T02:12:50.031Z,11.36
2023-03-26T02:15:17.614Z,11.38
2023-03-26T02:17:45.043Z,11.25
2023-03-26T02:20:14.310Z,11.03
2023-03-26T02:22:45.601Z,11.02
2023-03-26T02:25:18.945Z,11.23
2023-03-26T02:27:47.806Z,11.31
2023-03-26T02:30:21.664Z,11.21
2023-03-26T02:32:52.350Z,11.25
2023-03-26T02:35:21.914Z,11.38
2023-03-26T02:37:50.874Z,11.43
2023-03-26T02:40:21.180Z,11.47
2023-03-26T02:42:49.628Z,11.45
2023-03-26T02:45:17.319Z,11.31
2023-03-26T02:47:47.634Z,11.48
2023-03-26T02:50:16.921Z,11.45
2023-03-26T02:52:45.417Z,11.51
2023-03-26T02:55:12.884Z,11.65
2023-03-26T02:57:41.296Z,11.49
2023-03-26T03:00:11.074Z,11.61
2023-03-26T03:02:39.824Z,11.48
2023-03-26T03:05:09.226Z,11.54
2023-03-26T03:07:38.640Z,11.39
2023-03-26T03:10:09.984Z,11.40
2023-03-26T03:12:41.248Z,11.42
2023-03-26T03:15:09.288Z,11.33
2023-03-26T03:17:36.743Z,11.34
2023-03-26T03:20:06.869Z,11.23
2023-03-26T03:22:34.404Z,11.12
2023-03-26T03:25:02.658Z,11.11
2023-03-26T03:27:30.657Z,11.04
2023-03-26T03:29:59.039Z,11.06
2023-03-26T03:32:27.722Z,11.05
2023-03-26T03:34:56.494Z,10.99
2023-03-26T03:37:26.334Z,10.99
2023-03-26T03:39:54.187Z,10.86
2023-03-26T03:42:22.305Z,10.81
2023-03-26T03:44:50.591Z,10.79
2023-03-26T03:47:20.340Z,10.77
2023-03-26T03:49:48.325Z,10.73
2023-03-26T03:52:16.394Z,10.50
2023-03-26T03:54:43.829Z,10.49
2023-03-26T03:57:12.183Z,10.47
2023-03-26T03:59:47.903Z,10.44
2023-03-26T04:02:34.683Z,10.40
2023-03-26T04:05:04.416Z,10.40
2023-03-26T04:07:32.683Z,10.31
2023-03-26T04:10:08.329Z,10.32
2023-03-26T04:12:37.230Z,10.22
2023-03-26T04:15:05.905Z,10.18
2023-03-26T04:17:33.505Z,10.14
2023-03-26T04:20:14.505Z,10.21
2023-03-26T04:22:43.857Z,10.04
2023-03-26T04:25:12.467Z,10.13
2023-03-26T04:27:43.976Z,9.94
2023-03-26T04:30:15.702Z,9.87
2023-03-26T04:32:44.705Z,9.92
2023-03-26T04:35:16.767Z,9.84
2023-03-26T04:37:46.109Z,9.97
2023-03-26T04:40:18.360Z,9.97
2023-03-26T04:42:46.725Z,9.86
2023-03-26T04:45:17.751Z,9.92
2023-03-26T04:47:46.434Z,9.67
2023-03-26T04:50:14.726Z,9.82
2023-03-26T04:52:45.084Z,9.84
2023-03-26T04:56:06.449Z,9.93
2023-03-26T04:58:35.704Z,10.00
2023-03-26T05:01:10.277Z,10.01
2023-03-26T05:03:39.195Z,9.96
2023-03-26T05:06:09.982Z,10.15
2023-03-26T05:08:37.440Z,10.24
2023-03-26T05:11:11.361Z,10.39
2023-03-26T05:13:39.622Z,10.38
2023-03-26T05:16:08.678Z,10.53
2023-03-26T05:18:36.693Z,10.57
2023-03-26T05:21:05.355Z,10.55
2023-03-26T05:23:33.343Z,10.66
2023-03-26T05:26:01.710Z,10.77
2023-03-26T05:28:29.497Z,11.00
2023-03-26T05:30:57.217Z,11.03
2023-03-26T05:33:25.063Z,10.98
2023-03-26T05:36:05.597Z,10.98
2023-03-26T05:38:33.417Z,11.14
2023-03-26T05:41:03.789Z,11.25
2023-03-26T05:43:31.356Z,11.28
2023-03-26T05:45:59.235Z,11.27
2023-03-26T05:48:27.921Z,11.39
2023-03-26T05:50:57.695Z,11.43
2023-03-26T05:53:27.105Z,11.53
2023-03-26T05:56:06.455Z,11.60
2023-03-26T05:58:36.676Z,11.71
2023-03-26T06:01:08.407Z,11.69
2023-03-26T06:03:39.555Z,11.75
2023-03-26T06:06:09.741Z,12.04
2023-03-26T06:08:37.941Z,12.08
2023-03-26T06:11:08.086Z,12.56
2023-03-26T06:13:36.034Z,12.80
2023-03-26T06:16:03.853Z,13.06
2023-03-26T06:18:31.651Z,13.27
2023-03-26T06:20:59.578Z,13.55
2023-03-26T06:23:28.351Z,13.97
2023-03-26T06:25:56.208Z,13.90
2023-03-26T06:28:24.459Z,13.76
2023-03-26T06:30:52.827Z,13.94
2023-03-26T06:33:22.130Z,14.26
2023-03-26T06:35:51.486Z,14.22
2023-03-26T06:38:19.393Z,14.33
2023-03-26T06:40:47.006Z,14.76
2023-03-26T06:43:14.762Z,15.05
2023-03-26T06:45:43.589Z,14.60
2023-03-26T06:48:12.785Z,14.48
2023-03-26T06:50:40.837Z,15.10
2023-03-26T06:53:09.996Z,15.19
2023-03-26T06:55:38.296Z,15.24
2023-03-26T06:58:06.428Z,15.54
2023-03-26T07:00:35.837Z,15.64
2023-03-26T07:03:06.210Z,15.24
2023-03-26T07:05:43.114Z,15.42
2023-03-26T07:08:10.560Z,15.24
2023-03-26T07:10:39.310Z,15.23
2023-03-26T07:13:07.523Z,15.51
2023-03-26T07:15:35.867Z,15.39
2023-03-26T07:18:03.476Z,15.67
2023-03-26T07:20:31.455Z,15.93
2023-03-26T07:22:59.573Z,16.17
2023-03-26T07:25:29.198Z,16.12
2023-03-26T07:28:03.658Z,16.24
2023-03-26T07:30:50.583Z,16.41
2023-03-26T07:33:30.543Z,16.47
2023-03-26T07:36:12.660Z,16.45
2023-03-26T07:38:49.667Z,16.28
2023-03-26T07:41:29.394Z,16.65
2023-03-26T07:44:04.269Z,16.77
2023-03-26T07:46:37.061Z,16.64
2023-03-26T07:49:06.974Z,16.57
2023-03-26T07:51:35.104Z,16.65
2023-03-26T07:54:04.267Z,16.82
2023-03-26T07:56:49.413Z,16.91
2023-03-26T07:59:39.410Z,17.29
2023-03-26T08:02:27.239Z,17.37
2023-03-26T08:05:18.960Z,17.41
2023-03-26T08:08:02.837Z,17.39
2023-03-26T08:10:52.505Z,17.24
2023-03-26T08:13:25.448Z,17.14
2023-03-26T08:16:05.727Z,17.35
2023-03-26T08:18:47.610Z,17.41
2023-03-26T08:21:22.342Z,17.03
2023-03-26T08:24:07.995Z,17.03
2023-03-26T08:26:59.426Z,17.00
2023-03-26T08:29:45.230Z,16.95
2023-03-26T08:32:16.409Z,16.97
2023-03-26T08:34:43.898Z,17.07
2023-03-26T08:37:12.985Z,16.81
2023-03-26T08:39:42.034Z,16.80
2023-03-26T08:42:24.618Z,16.37
2023-03-26T08:45:29.404Z,16.61
2023-03-26T08:48:03.674Z,16.96
2023-03-26T08:50:49.833Z,16.90
2023-03-26T08:53:24.783Z,16.75
2023-03-26T08:56:22.049Z,17.16
2023-03-26T08:59:19.746Z,17.19
2023-03-26T09:02:19.759Z,17.15
2023-03-26T09:05:14.604Z,17.35
2023-03-26T09:08:01.719Z,17.34
2023-03-26T09:10:32.104Z,17.39
2023-03-26T09:13:24.267Z,17.55
2023-03-26T09:16:17.460Z,17.61
2023-03-26T09:19:22.617Z,17.70
2023-03-26T09:22:17.105Z,17.40
2023-03-26T09:25:04.768Z,17.55
2023-03-26T09:27:38.105Z,17.75
2023-03-26T09:30:30.259Z,17.81
2023-03-26T09:33:28.420Z,17.84
2023-03-26T09:36:08.476Z,17.76
2023-03-26T09:39:09.294Z,17.88
2023-03-26T09:42:09.578Z,17.83
2023-03-26T09:44:58.243Z,17.92
2023-03-26T09:47:26.282Z,17.41
2023-03-26T09:50:15.474Z,17.02
2023-03-26T09:53:09.314Z,16.84
2023-03-26T09:56:16.521Z,16.53
2023-03-26T09:58:46.959Z,17.02
2023-03-26T10:01:20.486Z,17.28
2023-03-26T10:04:06.987Z,17.34
2023-03-26T10:06:49.680Z,16.88
2023-03-26T10:09:36.055Z,17.05
2023-03-26T10:12:28.363Z,17.09
2023-03-26T10:14:59.038Z,17.25
2023-03-26T10:17:55.631Z,16.84
2023-03-26T10:20:38.043Z,16.76
2023-03-26T10:23:18.528Z,16.69
2023-03-26T10:26:17.354Z,16.29
2023-03-26T10:29:13.046Z,16.35
2023-03-26T10:32:24.029Z,16.10
2023-03-26T10:34:57.039Z,16.09
2023-03-26T10:37:37.074Z,16.25
2023-03-26T10:40:23.654Z,16.60
2023-03-26T10:43:29.651Z,16.69
2023-03-26T10:46:09.780Z,16.75
2023-03-26T10:48:56.525Z,16.72
2023-03-26T10:51:48.819Z,16.68
2023-03-26T10:54:55.294Z,16.82
2023-03-26T10:57:54.225Z,17.06
2023-03-26T11:00:27.034Z,16.98
2023-03-26T11:03:16.052Z,17.07
2023-03-26T11:05:46.709Z,17.05
2023-03-26T11:08:56.037Z,16.96
2023-03-26T11:11:42.180Z,17.18
2023-03-26T11:14:33.896Z,16.95
2023-03-26T11:17:08.502Z,16.77
2023-03-26T11:19:53.135Z,16.86
2023-03-26T11:22:30.043Z,16.89
2023-03-26T11:25:05.425Z,16.88
2023-03-26T11:27:40.518Z,17.01
2023-03-26T11:30:17.027Z,17.01
2023-03-26T11:32:46.461Z,16.89
2023-03-26T11:35:40.939Z,17.02
2023-03-26T11:38:23.281Z,17.22
2023-03-26T11:40:53.329Z,17.20
2023-03-26T11:43:32.035Z,16.67
2023-03-26T11:45:59.530Z,17.05
2023-03-26T11:48:44.398Z,17.26
2023-03-26T11:51:18.773Z,17.41
2023-03-26T11:53:46.780Z,17.44
2023-03-26T11:56:18.304Z,17.67
2023-03-26T11:59:08.905Z,17.87
2023-03-26T12:01:56.564Z,17.94
2023-03-26T12:04:34.997Z,18.34
2023-03-26T12:07:23.814Z,18.05
2023-03-26T12:09:52.950Z,18.14
2023-03-26T12:12:20.985Z,18.17
2023-03-26T12:14:48.540Z,18.37
2023-03-26T12:17:31.913Z,18.81
2023-03-26T12:20:01.127Z,18.90
2023-03-26T12:22:38.530Z,19.19
2023-03-26T12:25:25.912Z,19.31
2023-03-26T12:28:04.807Z,19.37
2023-03-26T12:30:39.621Z,19.13
2023-03-26T12:33:16.293Z,19.43
2023-03-26T12:35:44.071Z,19.39
2023-03-26T12:38:37.263Z,19.46
2023-03-26T12:41:08.018Z,19.18
2023-03-26T12:44:49.858Z,19.23
2023-03-26T12:47:54.377Z,19.28
2023-03-26T12:49:18.799Z,18.96
2023-03-26T12:52:25.212Z,19.25
2023-03-26T12:54:55.923Z,18.99
2023-03-26T12:57:25.271Z,19.07
2023-03-26T13:00:21.353Z,18.85
2023-03-26T13:03:05.678Z,18.87
2023-03-26T13:05:55.434Z,19.08
2023-03-26T13:08:46.601Z,18.99
2023-03-26T13:11:27.529Z,19.01
2023-03-26T13:14:10.644Z,19.27
2023-03-26T13:17:04.961Z,19.46
2023-03-26T13:19:53.947Z,19.32
2023-03-26T13:22:42.487Z,19.50
2023-03-26T13:25:25.679Z,19.55
2023-03-26T13:27:56.361Z,19.51
2023-03-26T13:30:52.339Z,19.41
2023-03-26T13:33:43.344Z,19.55
2023-03-26T13:36:23.114Z,19.30
2023-03-26T13:39:10.897Z,19.53
2023-03-26T13:41:50.084Z,19.52
2023-03-26T13:44:52.737Z,19.38
2023-03-26T13:47:36.692Z,19.54
2023-03-26T13:50:29.094Z,19.61
2023-03-26T13:53:02.220Z,19.75
2023-03-26T13:55:40.120Z,19.88
2023-03-26T13:58:10.881Z,19.93
2023-03-26T14:00:41.962Z,20.15
2023-03-26T14:03:26.379Z,20.21
2023-03-26T14:05:55.940Z,20.09
2023-03-26T14:08:31.663Z,20.07
2023-03-26T14:11:44.377Z,20.18
2023-03-26T14:14:32.293Z,20.08
2023-03-26T14:17:05.674Z,20.06
2023-03-26T14:19:40.319Z,20.20
2023-03-26T14:22:18.264Z,20.11
2023-03-26T14:25:08.593Z,19.94
2023-03-26T14:28:13.983Z,19.97
2023-03-26T14:31:20.744Z,20.08
2023-03-26T14:34:17.655Z,19.81
2023-03-26T14:37:28.094Z,19.87
2023-03-26T14:40:20.490Z,19.71
2023-03-26T14:43:12.766Z,19.91
2023-03-26T14:46:11.011Z,19.86
2023-03-26T14:48:48.335Z,19.84
2023-03-26T14:51:41.458Z,19.78
2023-03-26T14:54:13.286Z,19.85
2023-03-26T14:56:50.082Z,19.93
2023-03-26T14:59:29.511Z,20.01
2023-03-26T15:02:22.284Z,20.11
2023-03-26T15:04:49.732Z,20.12
2023-03-26T15:07:36.112Z,20.16
2023-03-26T15:10:22.698Z,20.10
2023-03-26T15:13:21.622Z,20.06
2023-03-26T15:15:55.318Z,19.99
2023-03-26T15:18:32.305Z,19.75
2023-03-26T15:21:24.692Z,19.69
2023-03-26T15:24:13.414Z,19.79
2023-03-26T15:27:01.090Z,19.81
2023-03-26T15:29:40.559Z,19.76
2023-03-26T15:32:26.753Z,19.69
2023-03-26T15:35:16.939Z,19.65
2023-03-26T15:38:12.614Z,19.50
2023-03-26T15:41:01.628Z,19.49
2023-03-26T15:44:23.618Z,19.45
2023-03-26T15:47:15.578Z,19.34
2023-03-26T15:49:59.207Z,19.22
2023-03-26T15:52:32.499Z,19.25
2023-03-26T15:54:59.846Z,19.12
2023-03-26T15:57:44.075Z,18.95
2023-03-26T16:00:22.192Z,19.26
2023-03-26T16:03:10.908Z,19.11
2023-03-26T16:05:57.284Z,19.21
2023-03-26T16:08:47.005Z,19.23
2023-03-26T16:11:15.402Z,19.30
2023-03-26T16:13:49.508Z,19.12
2023-03-26T16:16:24.894Z,19.08
2023-03-26T16:18:58.988Z,18.95
2023-03-26T16:21:36.490Z,18.90
2023-03-26T16:24:07.363Z,18.88
2023-03-26T16:26:43.626Z,18.85
2023-03-26T16:29:18.139Z,18.67
2023-03-26T16:32:10.546Z,18.69
2023-03-26T16:34:42.775Z,18.63
2023-03-26T16:37:32.216Z,18.65
2023-03-26T16:40:22.278Z,18.55
2023-03-26T16:43:20.113Z,18.44
2023-03-26T16:45:57.031Z,18.60
2023-03-26T16:48:49.132Z,18.43
2023-03-26T16:51:22.380Z,18.41
2023-03-26T16:54:13.356Z,18.23
2023-03-26T16:56:47.463Z,18.23
2023-03-26T16:59:42.991Z,18.13
2023-03-26T17:02:19.840Z,18.19
2023-03-26T17:04:50.737Z,18.24
2023-03-26T17:07:24.243Z,18.01
2023-03-26T17:10:08.710Z,17.93
2023-03-26T17:13:10.921Z,17.98
2023-03-26T17:16:12.763Z,18.04
2023-03-26T17:18:55.734Z,18.09
2023-03-26T17:21:46.318Z,18.09
2023-03-26T17:24:33.844Z,18.00
2023-03-26T17:27:26.597Z,17.99
2023-03-26T17:30:16.105Z,18.07
2023-03-26T17:33:13.599Z,17.90
2023-03-26T17:35:46.454Z,17.78
2023-03-26T17:38:16.763Z,17.81
2023-03-26T17:41:00.637Z,18.03
2023-03-26T17:43:51.421Z,18.24
2023-03-26T17:46:37.998Z,18.43
2023-03-26T17:49:31.483Z,18.80
2023-03-26T17:52:02.058Z,18.68
2023-03-26T17:54:44.168Z,18.51
2023-03-26T17:57:27.134Z,18.56
2023-03-26T17:59:59.073Z,18.45
2023-03-26T18:02:43.656Z,18.50
2023-03-26T18:05:13.713Z,18.39
2023-03-26T18:08:19.755Z,18.27
2023-03-26T18:11:05.459Z,18.08
2023-03-26T18:14:02.791Z,18.00
2023-03-26T18:16:44.236Z,18.12
2023-03-26T18:19:19.843Z,17.97
2023-03-26T18:21:53.350Z,17.98
2023-03-26T18:24:30.289Z,17.93
2023-03-26T18:27:03.611Z,17.90
2023-03-26T18:29:33.355Z,17.91
2023-03-26T18:32:03.900Z,17.81
2023-03-26T18:34:34.058Z,17.79
2023-03-26T18:37:08.518Z,17.89
2023-03-26T18:39:36.568Z,17.80
2023-03-26T18:42:06.009Z,17.81
2023-03-26T18:44:36.706Z,17.66
2023-03-26T18:47:06.453Z,17.84
2023-03-26T18:49:33.936Z,17.82
2023-03-26T18:52:01.376Z,17.67
2023-03-26T18:54:33.846Z,17.77
2023-03-26T18:57:15.871Z,17.81
2023-03-26T18:59:45.400Z,17.80
2023-03-26T19:02:13.911Z,17.69
2023-03-26T19:04:46.123Z,17.78
2023-03-26T19:07:18.075Z,17.65
2023-03-26T19:09:45.580Z,17.67
2023-03-26T19:12:25.207Z,17.66
2023-03-26T19:15:07.783Z,17.68
2023-03-26T19:17:40.781Z,17.61
2023-03-26T19:20:16.742Z,17.66
2023-03-26T19:22:45.398Z,17.53
2023-03-26T19:25:21.689Z,17.60
2023-03-26T19:27:50.691Z,17.46
2023-03-26T19:30:28.488Z,17.55
2023-03-26T19:32:56.617Z,17.49
2023-03-26T19:35:42.557Z,17.49
2023-03-26T19:38:29.697Z,17.39
2023-03-26T19:40:58.112Z,17.46
2023-03-26T19:43:26.219Z,17.35
2023-03-26T19:46:00.352Z,17.28
2023-03-26T19:48:45.264Z,17.27
2023-03-26T19:51:31.546Z,17.38
2023-03-26T19:54:03.067Z,17.32
2023-03-26T19:56:30.817Z,17.26
2023-03-26T19:58:59.190Z,17.30
2023-03-26T20:01:29.203Z,17.35
2023-03-26T20:04:00.898Z,17.16
2023-03-26T20:06:41.491Z,17.02
2023-03-26T20:09:11.676Z,17.25
2023-03-26T20:11:39.708Z,17.32
2023-03-26T20:14:13.018Z,17.22
2023-03-26T20:16:42.810Z,17.07
2023-03-26T20:19:11.424Z,17.02
2023-03-26T20:21:40.245Z,17.14
2023-03-26T20:24:12.948Z,17.15
2023-03-26T20:26:40.642Z,17.10
2023-03-26T20:29:08.349Z,17.03
2023-03-26T20:31:35.922Z,17.06
2023-03-26T20:34:03.564Z,17.03
2023-03-26T20:36:34.256Z,16.96
2023-03-26T20:39:08.441Z,16.83
2023-03-26T20:41:42.769Z,16.90
2023-03-26T20:44:15.956Z,16.87
2023-03-26T20:46:45.369Z,16.84
2023-03-26T20:49:12.934Z,16.86
2023-03-26T20:51:42.022Z,16.74
2023-03-26T20:54:30.335Z,16.85
2023-03-26T20:56:58.145Z,16.69
2023-03-26T20:59:28.005Z,16.69
2023-03-26T21:01:56.979Z,16.73
2023-03-26T21:04:26.144Z,16.61
2023-03-26T21:07:00.295Z,16.66
2023-03-26T21:09:34.791Z,16.82
2023-03-26T21:12:06.016Z,16.68
2023-03-26T21:14:41.424Z,16.68
2023-03-26T21:17:22.261Z,16.43
2023-03-26T21:19:50.124Z,16.07
2023-03-26T21:22:41.172Z,16.13
2023-03-26T21:25:22.797Z,15.73
2023-03-26T21:28:09.167Z,15.63
2023-03-26T21:30:37.441Z,15.41
2023-03-26T21:33:06.243Z,15.31
2023-03-26T21:35:34.771Z,15.43
2023-03-26T21:38:04.725Z,15.26
2023-03-26T21:40:33.075Z,15.39
2023-03-26T21:43:01.063Z,15.05
2023-03-26T21:45:28.831Z,15.05
2023-03-26T21:47:57.032Z,15.17
2023-03-26T21:50:24.782Z,15.28
2023-03-26T21:52:52.627Z,15.23
2023-03-26T21:55:22.764Z,15.36
2023-03-26T21:58:13.198Z,15.30
2023-03-26T22:01:13.310Z,15.36
2023-03-26T22:03:47.001Z,15.51
2023-03-26T22:06:25.744Z,15.31
2023-03-26T22:08:53.553Z,15.29
2023-03-26T22:11:20.966Z,15.18
2023-03-26T22:13:48.391Z,15.27
2023-03-26T22:16:18.777Z,15.28
2023-03-26T22:18:46.244Z,15.13
2023-03-26T22:21:14.098Z,15.26
2023-03-26T22:23:41.831Z,15.23
2023-03-26T22:26:09.518Z,15.19
2023-03-26T22:28:37.199Z,14.92
2023-03-26T22:31:08.278Z,14.83
2023-03-26T22:33:36.070Z,14.76
2023-03-26T22:36:03.626Z,14.74
2023-03-26T22:38:31.336Z,14.64
2023-03-26T22:40:58.974Z,14.39
2023-03-26T22:43:26.514Z,14.32
2023-03-26T22:45:55.011Z,14.38
2023-03-26T22:48:23.813Z,14.25
2023-03-26T22:51:05.459Z,14.32
2023-03-26T22:53:33.138Z,14.34
2023-03-26T22:56:00.773Z,14.35
2023-03-26T22:58:28.623Z,14.41
2023-03-26T23:01:14.565Z,14.25
2023-03-26T23:03:43.038Z,14.36
2023-03-26T23:06:12.046Z,14.22
2023-03-26T23:08:40.055Z,14.19
2023-03-26T23:11:13.172Z,14.21
2023-03-26T23:13:41.720Z,14.11
2023-03-26T23:16:10.232Z,14.16
2023-03-26T23:18:38.150Z,14.07
2023-03-26T23:21:12.006Z,14.05
2023-03-26T23:23:39.955Z,13.83
2023-03-26T23:26:07.717Z,13.79
2023-03-26T23:28:35.655Z,13.88
2023-03-26T23:31:05.583Z,13.85
2023-03-26T23:33:35.383Z,13.82
2023-03-26T23:36:08.800Z,13.68
2023-03-26T23:38:43.422Z,13.74
2023-03-26T23:41:14.837Z,13.71
2023-03-26T23:43:54.878Z,13.57
2023-03-26T23:46:25.118Z,13.59
2023-03-26T23:48:53.250Z,13.71
2023-03-26T23:51:21.533Z,13.64
2023-03-26T23:53:49.530Z,13.73
2023-03-26T23:56:17.566Z,13.65
2023-03-26T23:58:45.254Z,13.70
